createdAt,value
2022-09-25T00:01:46.741Z,81.63
2022-09-25T00:04:13.622Z,82.94
2022-09-25T00:06:40.449Z,83.35
2022-09-25T00:09:10.006Z,82.89
2022-09-25T00:11:37.141Z,82.76
2022-09-25T00:14:04.313Z,83.65
2022-09-25T00:16:32.739Z,82.68
2022-09-25T00:19:00.841Z,83.00
2022-09-25T00:21:28.600Z,83.13
2022-09-25T00:23:55.414Z,83.17
2022-09-25T00:26:22.230Z,83.04
2022-09-25T00:28:49.353Z,84.53
2022-09-25T00:31:21.310Z,83.49
2022-09-25T00:33:48.204Z,83.96
2022-09-25T00:36:14.965Z,83.58
2022-09-25T00:38:41.713Z,83.21
2022-09-25T00:41:08.493Z,83.35
2022-09-25T00:43:44.744Z,83.11
2022-09-25T00:46:23.783Z,83.11
2022-09-25T00:48:59.754Z,83.45
2022-09-25T00:51:34.823Z,83.50
2022-09-25T00:54:06.109Z,83.25
2022-09-25T00:56:41.575Z,83.08
2022-09-25T00:59:14.166Z,83.10
2022-09-25T01:01:41.125Z,83.74
2022-09-25T01:04:09.094Z,83.81
2022-09-25T01:06:36.276Z,83.46
2022-09-25T01:09:03.066Z,83.61
2022-09-25T01:11:29.863Z,84.16
2022-09-25T01:14:00.507Z,83.67
2022-09-25T01:16:55.472Z,83.05
2022-09-25T01:19:46.267Z,82.99
2022-09-25T01:22:27.892Z,83.48
2022-09-25T01:25:21.830Z,84.63
2022-09-25T01:28:02.897Z,83.37
2022-09-25T01:30:33.737Z,83.53
2022-09-25T01:33:10.049Z,84.00
2022-09-25T01:35:43.054Z,83.50
2022-09-25T01:38:38.530Z,84.07
2022-09-25T01:41:19.916Z,84.23
2022-09-25T01:43:58.939Z,83.15
2022-09-25T01:46:36.431Z,84.03
2022-09-25T01:49:12.091Z,83.76
2022-09-25T01:51:48.398Z,84.52
2022-09-25T01:54:21.221Z,84.53
2022-09-25T01:57:00.392Z,83.81
2022-09-25T01:59:36.305Z,83.95
2022-09-25T02:02:10.538Z,84.63
2022-09-25T02:04:48.909Z,84.06
2022-09-25T02:07:22.840Z,84.63
2022-09-25T02:10:01.275Z,85.01
2022-09-25T02:12:51.460Z,84.62
2022-09-25T02:15:23.598Z,84.54
2022-09-25T02:17:59.680Z,83.65
2022-09-25T02:20:30.787Z,84.65
2022-09-25T02:23:05.902Z,84.45
2022-09-25T02:25:43.144Z,85.25
2022-09-25T02:28:10.204Z,84.98
2022-09-25T02:30:37.105Z,84.98
2022-09-25T02:33:04.203Z,85.51
2022-09-25T02:35:32.734Z,85.72
2022-09-25T02:37:59.750Z,85.35
2022-09-25T02:40:49.604Z,84.49
2022-09-25T02:43:38.384Z,85.05
2022-09-25T02:46:11.266Z,85.22
2022-09-25T02:48:58.333Z,85.03
2022-09-25T02:52:13.400Z,85.77
2022-09-25T02:54:48.846Z,85.48
2022-09-25T02:57:19.103Z,85.04
2022-09-25T02:59:52.788Z,85.67
2022-09-25T03:02:21.879Z,85.22
2022-09-25T03:04:50.641Z,85.04
2022-09-25T03:07:18.811Z,85.54
2022-09-25T03:09:48.744Z,85.28
2022-09-25T03:12:15.615Z,85.90
2022-09-25T03:14:42.496Z,85.77
2022-09-25T03:17:10.106Z,85.33
2022-09-25T03:19:37.574Z,85.27
2022-09-25T03:22:04.685Z,85.49
2022-09-25T03:24:31.538Z,85.49
2022-09-25T03:26:58.300Z,85.45
2022-09-25T03:29:25.354Z,85.16
2022-09-25T03:31:52.354Z,86.63
2022-09-25T03:34:19.728Z,86.67
2022-09-25T03:36:46.899Z,85.86
2022-09-25T03:39:16.069Z,86.38
2022-09-25T03:41:42.860Z,86.19
2022-09-25T03:44:09.988Z,85.90
2022-09-25T03:46:36.887Z,86.55
2022-09-25T03:49:04.462Z,86.74
2022-09-25T03:51:32.526Z,87.03
2022-09-25T03:53:59.459Z,86.38
2022-09-25T03:56:28.185Z,87.33
2022-09-25T03:58:55.477Z,86.49
2022-09-25T04:01:24.169Z,86.89
2022-09-25T04:03:51.518Z,86.66
2022-09-25T04:06:22.056Z,87.63
2022-09-25T04:08:49.338Z,87.53
2022-09-25T04:11:18.470Z,86.90
2022-09-25T04:13:45.310Z,87.40
2022-09-25T04:16:13.611Z,87.82
2022-09-25T04:18:40.506Z,87.38
2022-09-25T04:21:09.184Z,87.00
2022-09-25T04:23:37.447Z,87.13
2022-09-25T04:26:04.761Z,86.57
2022-09-25T04:28:31.567Z,87.21
2022-09-25T04:30:59.168Z,87.53
2022-09-25T04:33:26.203Z,86.89
2022-09-25T04:35:52.923Z,86.25
2022-09-25T04:38:19.759Z,87.14
2022-09-25T04:40:46.607Z,86.84
2022-09-25T04:43:13.493Z,86.59
2022-09-25T04:45:40.412Z,86.69
2022-09-25T04:48:07.468Z,86.45
2022-09-25T04:50:35.204Z,86.80
2022-09-25T04:53:02.786Z,87.42
2022-09-25T04:55:29.601Z,87.02
2022-09-25T04:57:59.602Z,87.08
2022-09-25T05:00:31.715Z,86.73
2022-09-25T05:03:01.863Z,86.63
2022-09-25T05:05:28.933Z,87.23
2022-09-25T05:08:00.487Z,87.18
2022-09-25T05:10:30.614Z,87.30
2022-09-25T05:12:59.397Z,87.10
2022-09-25T05:15:28.099Z,87.24
2022-09-25T05:18:13.702Z,87.69
2022-09-25T05:20:40.466Z,88.09
2022-09-25T05:23:07.206Z,88.96
2022-09-25T05:25:33.967Z,87.82
2022-09-25T05:28:02.148Z,88.57
2022-09-25T05:30:31.650Z,88.26
2022-09-25T05:32:58.515Z,88.17
2022-09-25T05:35:30.769Z,87.95
2022-09-25T05:37:57.648Z,87.92
2022-09-25T05:40:25.001Z,88.11
2022-09-25T05:42:52.039Z,88.25
2022-09-25T05:45:20.611Z,88.38
2022-09-25T05:47:47.791Z,88.83
2022-09-25T05:50:17.250Z,89.46
2022-09-25T05:52:44.170Z,88.51
2022-09-25T05:55:11.124Z,88.20
2022-09-25T05:57:38.633Z,88.18
2022-09-25T06:00:09.281Z,87.79
2022-09-25T06:02:38.821Z,89.12
2022-09-25T06:05:05.714Z,88.84
2022-09-25T06:07:32.538Z,88.64
2022-09-25T06:09:59.450Z,88.17
2022-09-25T06:12:28.749Z,88.26
2022-09-25T06:14:55.653Z,88.38
2022-09-25T06:17:22.804Z,89.06
2022-09-25T06:19:49.679Z,88.24
2022-09-25T06:22:16.515Z,87.90
2022-09-25T06:24:43.343Z,88.26
2022-09-25T06:27:10.153Z,88.21
2022-09-25T06:29:36.950Z,87.76
2022-09-25T06:32:04.312Z,87.61
2022-09-25T06:34:31.155Z,87.32
2022-09-25T06:37:00.666Z,87.64
2022-09-25T06:39:27.499Z,88.11
2022-09-25T06:41:54.289Z,87.71
2022-09-25T06:44:22.028Z,87.67
2022-09-25T06:46:50.631Z,87.94
2022-09-25T06:49:17.459Z,87.59
2022-09-25T06:51:44.269Z,87.22
2022-09-25T06:54:11.101Z,87.69
2022-09-25T06:56:38.066Z,87.74
2022-09-25T06:59:05.778Z,87.06
2022-09-25T07:01:32.802Z,86.87
2022-09-25T07:03:59.578Z,86.99
2022-09-25T07:06:26.738Z,86.46
2022-09-25T07:08:53.747Z,86.52
2022-09-25T07:11:23.478Z,85.72
2022-09-25T07:13:50.478Z,86.06
2022-09-25T07:16:19.913Z,86.39
2022-09-25T07:18:47.648Z,85.80
2022-09-25T07:21:18.887Z,85.93
2022-09-25T07:23:49.660Z,85.06
2022-09-25T07:26:17.487Z,85.18
2022-09-25T07:28:44.485Z,85.23
2022-09-25T07:31:17.337Z,84.74
2022-09-25T07:33:44.480Z,84.60
2022-09-25T07:36:12.260Z,84.57
2022-09-25T07:38:39.949Z,84.95
2022-09-25T07:41:10.447Z,84.66
2022-09-25T07:43:37.462Z,85.00
2022-09-25T07:46:05.296Z,84.57
2022-09-25T07:48:32.441Z,84.83
2022-09-25T07:51:03.872Z,84.63
2022-09-25T07:53:31.034Z,84.35
2022-09-25T07:56:06.125Z,83.84
2022-09-25T07:58:33.664Z,83.77
2022-09-25T08:01:02.434Z,84.10
2022-09-25T08:03:29.408Z,84.17
2022-09-25T08:06:05.136Z,84.11
2022-09-25T08:08:34.514Z,83.87
2022-09-25T08:11:06.283Z,84.07
2022-09-25T08:13:33.734Z,83.95
2022-09-25T08:16:08.122Z,83.82
2022-09-25T08:18:34.879Z,83.70
2022-09-25T08:21:05.393Z,83.93
2022-09-25T08:23:32.439Z,83.24
2022-09-25T08:26:00.265Z,83.47
2022-09-25T08:28:27.423Z,83.72
2022-09-25T08:30:54.445Z,83.29
2022-09-25T08:33:21.285Z,83.84
2022-09-25T08:36:02.838Z,83.19
2022-09-25T08:38:30.314Z,83.12
2022-09-25T08:41:12.384Z,83.12
2022-09-25T08:44:05.556Z,82.94
2022-09-25T08:46:47.131Z,82.99
2022-09-25T08:49:15.100Z,82.94
2022-09-25T08:51:49.088Z,82.91
2022-09-25T08:54:23.621Z,81.55
2022-09-25T08:56:52.586Z,81.12
2022-09-25T08:59:41.286Z,82.00
2022-09-25T09:02:16.478Z,81.22
2022-09-25T09:04:47.899Z,81.94
2022-09-25T09:07:32.267Z,81.57
2022-09-25T09:10:17.468Z,80.87
2022-09-25T09:12:50.782Z,81.70
2022-09-25T09:15:23.754Z,81.40
2022-09-25T09:17:50.612Z,81.33
2022-09-25T09:20:19.671Z,80.47
2022-09-25T09:22:50.260Z,80.78
2022-09-25T09:25:27.512Z,80.25
2022-09-25T09:28:06.433Z,79.97
2022-09-25T09:30:55.356Z,80.67
2022-09-25T09:33:31.210Z,80.46
2022-09-25T09:36:12.840Z,80.64
2022-09-25T09:38:55.311Z,81.02
2022-09-25T09:41:43.369Z,80.77
2022-09-25T09:44:33.875Z,80.29
2022-09-25T09:47:38.244Z,79.89
2022-09-25T09:50:28.291Z,80.57
2022-09-25T09:53:10.733Z,80.09
2022-09-25T09:55:45.238Z,80.05
2022-09-25T09:58:30.954Z,80.21
2022-09-25T10:01:06.976Z,80.54
2022-09-25T10:03:45.672Z,80.14
2022-09-25T10:06:19.214Z,80.00
2022-09-25T10:08:49.701Z,79.84
2022-09-25T10:11:18.324Z,80.13
2022-09-25T10:13:47.033Z,80.17
2022-09-25T10:16:20.261Z,79.89
2022-09-25T10:18:57.548Z,79.88
2022-09-25T10:21:30.456Z,80.23
2022-09-25T10:23:58.037Z,80.09
2022-09-25T10:26:36.942Z,79.80
2022-09-25T10:29:27.286Z,79.87
2022-09-25T10:32:11.430Z,79.65
2022-09-25T10:34:38.599Z,79.24
2022-09-25T10:37:21.683Z,79.11
2022-09-25T10:40:02.959Z,78.69
2022-09-25T10:42:36.398Z,79.02
2022-09-25T10:45:24.668Z,79.05
2022-09-25T10:47:51.441Z,78.81
2022-09-25T10:50:27.266Z,79.11
2022-09-25T10:52:55.989Z,79.05
2022-09-25T10:55:30.130Z,79.35
2022-09-25T10:58:03.149Z,78.82
2022-09-25T11:00:30.123Z,79.01
2022-09-25T11:03:05.796Z,78.96
2022-09-25T11:05:35.716Z,78.77
2022-09-25T11:08:07.625Z,79.34
2022-09-25T11:10:50.174Z,78.42
2022-09-25T11:13:23.501Z,78.60
2022-09-25T11:15:54.069Z,78.98
2022-09-25T11:18:39.195Z,78.88
2022-09-25T11:21:16.318Z,78.86
2022-09-25T11:24:12.366Z,78.51
2022-09-25T11:27:07.857Z,78.77
2022-09-25T11:30:00.603Z,78.78
2022-09-25T11:32:50.187Z,78.79
2022-09-25T11:35:39.460Z,79.01
2022-09-25T11:38:33.648Z,78.87
2022-09-25T11:41:07.976Z,78.86
2022-09-25T11:43:40.406Z,78.31
2022-09-25T11:46:20.269Z,79.05
2022-09-25T11:49:19.887Z,78.83
2022-09-25T11:51:54.378Z,79.20
2022-09-25T11:54:47.639Z,78.02
2022-09-25T11:57:23.886Z,78.68
2022-09-25T11:59:59.579Z,78.38
2022-09-25T12:03:04.601Z,78.75
2022-09-25T12:05:48.721Z,78.39
2022-09-25T12:08:45.640Z,78.49
2022-09-25T12:11:34.642Z,78.37
2022-09-25T12:14:19.731Z,78.67
2022-09-25T12:16:55.571Z,78.38
2022-09-25T12:19:39.199Z,78.27
2022-09-25T12:22:24.723Z,78.25
2022-09-25T12:25:22.360Z,78.36
2022-09-25T12:28:27.479Z,78.36
2022-09-25T12:31:12.239Z,78.29
2022-09-25T12:33:45.170Z,78.25
2022-09-25T12:36:33.863Z,78.50
2022-09-25T12:39:27.753Z,77.94
2022-09-25T12:42:19.288Z,78.19
2022-09-25T12:44:49.063Z,77.75
2022-09-25T12:47:41.373Z,78.05
2022-09-25T12:50:17.224Z,77.69
2022-09-25T12:52:56.585Z,78.07
2022-09-25T12:55:37.481Z,78.11
2022-09-25T12:58:27.885Z,78.08
2022-09-25T13:01:02.479Z,77.54
2022-09-25T13:03:53.473Z,78.02
2022-09-25T13:06:35.554Z,77.45
2022-09-25T13:09:14.784Z,77.28
2022-09-25T13:12:30.374Z,77.63
2022-09-25T13:15:15.414Z,77.41
2022-09-25T13:17:42.474Z,76.99
2022-09-25T13:20:27.697Z,77.60
2022-09-25T13:23:02.992Z,77.09
2022-09-25T13:25:40.118Z,77.33
2022-09-25T13:28:09.568Z,77.44
2022-09-25T13:30:36.537Z,77.19
2022-09-25T13:33:03.878Z,77.43
2022-09-25T13:35:32.600Z,76.91
2022-09-25T13:38:17.768Z,76.75
2022-09-25T13:40:50.434Z,76.80
2022-09-25T13:43:26.078Z,76.68
2022-09-25T13:46:14.865Z,76.31
2022-09-25T13:48:42.350Z,75.72
2022-09-25T13:51:17.990Z,76.32
2022-09-25T13:53:58.390Z,75.96
2022-09-25T13:56:46.252Z,75.58
2022-09-25T13:59:13.129Z,75.99
2022-09-25T14:01:41.930Z,75.91
2022-09-25T14:04:14.752Z,76.48
2022-09-25T14:06:50.503Z,76.45
2022-09-25T14:09:20.483Z,76.54
2022-09-25T14:12:18.352Z,76.81
2022-09-25T14:14:51.503Z,76.30
2022-09-25T14:17:20.631Z,76.48
2022-09-25T14:19:54.236Z,77.03
2022-09-25T14:22:31.155Z,77.13
2022-09-25T14:24:58.126Z,76.92
2022-09-25T14:27:27.303Z,76.77
2022-09-25T14:30:12.931Z,77.25
2022-09-25T14:32:56.391Z,76.73
2022-09-25T14:35:32.919Z,77.31
2022-09-25T14:38:24.636Z,77.11
2022-09-25T14:41:09.874Z,77.63
2022-09-25T14:44:03.212Z,77.58
2022-09-25T14:46:30.742Z,76.93
2022-09-25T14:49:21.963Z,76.72
2022-09-25T14:51:48.867Z,76.83
2022-09-25T14:54:21.423Z,76.63
2022-09-25T14:56:54.103Z,76.60
2022-09-25T14:59:30.552Z,77.07
2022-09-25T15:01:59.312Z,77.18
2022-09-25T15:04:34.100Z,76.93
2022-09-25T15:07:13.394Z,76.70
2022-09-25T15:09:42.085Z,77.19
2022-09-25T15:12:27.839Z,77.43
2022-09-25T15:15:11.785Z,77.95
2022-09-25T15:17:48.449Z,77.89
2022-09-25T15:20:21.357Z,77.69
2022-09-25T15:22:56.737Z,78.26
2022-09-25T15:25:30.177Z,78.17
2022-09-25T15:27:57.740Z,77.94
2022-09-25T15:30:27.128Z,78.07
2022-09-25T15:33:00.553Z,78.22
2022-09-25T15:35:29.528Z,78.39
2022-09-25T15:38:08.342Z,78.03
2022-09-25T15:40:35.193Z,78.62
2022-09-25T15:43:02.192Z,78.52
2022-09-25T15:45:54.443Z,78.65
2022-09-25T15:48:26.469Z,79.27
2022-09-25T15:50:53.994Z,79.42
2022-09-25T15:53:36.313Z,79.42
2022-09-25T15:56:13.320Z,79.98
2022-09-25T15:58:48.081Z,79.92
2022-09-25T16:01:18.670Z,80.10
2022-09-25T16:03:49.930Z,80.12
2022-09-25T16:06:17.777Z,80.47
2022-09-25T16:08:44.704Z,80.42
2022-09-25T16:11:23.005Z,80.67
2022-09-25T16:13:52.803Z,80.84
2022-09-25T16:16:21.880Z,81.23
2022-09-25T16:18:49.653Z,81.42
2022-09-25T16:21:21.639Z,80.86
2022-09-25T16:23:57.779Z,81.27
2022-09-25T16:26:27.632Z,81.49
2022-09-25T16:29:21.228Z,81.93
2022-09-25T16:31:49.439Z,82.29
2022-09-25T16:34:33.270Z,82.04
2022-09-25T16:37:02.549Z,81.80
2022-09-25T16:39:39.305Z,82.27
2022-09-25T16:42:26.777Z,82.34
2022-09-25T16:45:05.036Z,82.30
2022-09-25T16:47:32.235Z,82.43
2022-09-25T16:49:59.040Z,82.82
2022-09-25T16:52:31.160Z,82.69
2022-09-25T16:54:59.898Z,83.20
2022-09-25T16:57:27.614Z,83.06
2022-09-25T16:59:54.619Z,83.34
2022-09-25T17:02:28.897Z,83.03
2022-09-25T17:04:57.331Z,83.56
2022-09-25T17:07:24.035Z,83.59
2022-09-25T17:09:51.364Z,83.62
2022-09-25T17:12:22.499Z,83.67
2022-09-25T17:14:50.699Z,83.71
2022-09-25T17:17:22.690Z,83.52
2022-09-25T17:19:50.221Z,83.19
2022-09-25T17:22:17.384Z,83.60
2022-09-25T17:24:44.107Z,83.97
2022-09-25T17:27:15.711Z,83.72
2022-09-25T17:29:42.891Z,83.73
2022-09-25T17:32:16.466Z,83.71
2022-09-25T17:34:46.744Z,83.80
2022-09-25T17:37:13.896Z,83.61
2022-09-25T17:39:40.662Z,83.66
2022-09-25T17:42:07.383Z,83.58
2022-09-25T17:44:34.192Z,83.73
2022-09-25T17:47:01.235Z,83.85
2022-09-25T17:49:28.107Z,84.16
2022-09-25T17:51:55.984Z,83.78
2022-09-25T17:54:24.127Z,84.24
2022-09-25T17:56:50.946Z,83.86
2022-09-25T17:59:17.758Z,84.16
2022-09-25T18:01:44.531Z,84.01
2022-09-25T18:04:23.326Z,84.55
2022-09-25T18:06:50.429Z,84.18
2022-09-25T18:09:18.083Z,84.32
2022-09-25T18:11:45.507Z,84.36
2022-09-25T18:14:14.210Z,84.52
2022-09-25T18:16:43.702Z,84.38
2022-09-25T18:19:16.193Z,84.25
2022-09-25T18:21:43.331Z,84.92
2022-09-25T18:24:10.183Z,84.70
2022-09-25T18:26:37.791Z,84.88
2022-09-25T18:29:05.106Z,84.96
2022-09-25T18:31:32.517Z,84.84
2022-09-25T18:34:00.368Z,84.85
2022-09-25T18:36:29.013Z,85.34
2022-09-25T18:38:55.752Z,86.22
2022-09-25T18:41:22.585Z,86.08
2022-09-25T18:43:49.312Z,86.41
2022-09-25T18:46:16.510Z,86.53
2022-09-25T18:48:47.243Z,86.79
2022-09-25T18:51:17.523Z,86.81
2022-09-25T18:53:50.393Z,86.92
2022-09-25T18:56:17.764Z,87.04
2022-09-25T18:58:44.992Z,86.61
2022-09-25T19:01:11.824Z,86.94
2022-09-25T19:03:40.999Z,87.05
2022-09-25T19:06:07.948Z,87.41
2022-09-25T19:08:35.288Z,87.45
2022-09-25T19:11:02.358Z,87.72
2022-09-25T19:13:29.229Z,88.06
2022-09-25T19:15:56.786Z,88.85
2022-09-25T19:18:23.589Z,87.46
2022-09-25T19:20:56.258Z,87.69
2022-09-25T19:23:25.298Z,87.46
2022-09-25T19:25:54.831Z,87.59
2022-09-25T19:28:21.731Z,87.32
2022-09-25T19:31:01.555Z,87.27
2022-09-25T19:33:30.455Z,87.21
2022-09-25T19:36:01.603Z,87.30
2022-09-25T19:38:32.619Z,87.46
2022-09-25T19:41:00.268Z,87.55
2022-09-25T19:43:27.712Z,87.82
2022-09-25T19:45:56.235Z,87.77
2022-09-25T19:48:24.213Z,88.15
2022-09-25T19:50:51.723Z,87.91
2022-09-25T19:53:18.604Z,87.48
2022-09-25T19:55:54.406Z,87.75
2022-09-25T19:58:23.461Z,88.10
2022-09-25T20:00:51.807Z,87.49
2022-09-25T20:03:18.725Z,87.82
2022-09-25T20:05:45.530Z,88.39
2022-09-25T20:08:12.295Z,88.09
2022-09-25T20:10:39.030Z,89.21
2022-09-25T20:13:05.836Z,88.53
2022-09-25T20:15:33.327Z,88.87
2022-09-25T20:18:00.213Z,89.03
2022-09-25T20:20:28.770Z,89.10
2022-09-25T20:22:56.819Z,89.79
2022-09-25T20:25:25.030Z,89.70
2022-09-25T20:27:52.072Z,90.28
2022-09-25T20:30:19.670Z,90.70
2022-09-25T20:32:46.813Z,90.58
2022-09-25T20:35:13.760Z,90.54
2022-09-25T20:37:40.483Z,91.14
2022-09-25T20:40:07.571Z,90.94
2022-09-25T20:42:34.373Z,90.84
2022-09-25T20:45:01.132Z,90.83
2022-09-25T20:47:29.563Z,90.59
2022-09-25T20:49:56.275Z,91.01
2022-09-25T20:52:23.036Z,91.18
2022-09-25T20:54:49.745Z,91.02
2022-09-25T20:57:16.497Z,91.41
2022-09-25T20:59:43.221Z,92.25
2022-09-25T21:02:10.440Z,91.88
2022-09-25T21:04:37.337Z,92.40
2022-09-25T21:07:04.183Z,91.71
2022-09-25T21:09:30.936Z,92.04
2022-09-25T21:11:57.775Z,91.88
2022-09-25T21:14:26.774Z,92.62
2022-09-25T21:16:55.329Z,92.73
2022-09-25T21:19:23.185Z,93.26
2022-09-25T21:21:50.345Z,93.30
2022-09-25T21:24:20.276Z,93.51
2022-09-25T21:26:48.379Z,93.80
2022-09-25T21:29:18.309Z,93.56
2022-09-25T21:31:49.910Z,93.69
2022-09-25T21:34:18.827Z,93.86
2022-09-25T21:36:46.574Z,93.51
2022-09-25T21:39:14.131Z,93.96
2022-09-25T21:41:41.999Z,94.18
2022-09-25T21:44:14.109Z,94.67
2022-09-25T21:46:40.999Z,95.04
2022-09-25T21:49:08.463Z,95.11
2022-09-25T21:51:41.677Z,95.00
2022-09-25T21:54:10.509Z,94.97
2022-09-25T21:56:37.300Z,94.61
2022-09-25T21:59:08.726Z,94.97
2022-09-25T22:01:40.281Z,95.29
2022-09-25T22:04:10.729Z,95.46
2022-09-25T22:06:41.812Z,94.83
2022-09-25T22:09:12.021Z,94.92
2022-09-25T22:11:39.870Z,94.61
2022-09-25T22:14:10.827Z,94.95
2022-09-25T22:16:42.184Z,94.82
2022-09-25T22:19:13.056Z,94.63
2022-09-25T22:21:41.417Z,94.82
2022-09-25T22:24:09.182Z,94.73
2022-09-25T22:26:38.092Z,95.17
2022-09-25T22:29:06.133Z,94.50
2022-09-25T22:31:35.411Z,94.92
2022-09-25T22:34:05.014Z,94.87
2022-09-25T22:36:32.396Z,94.75
2022-09-25T22:38:59.141Z,93.94
2022-09-25T22:41:25.964Z,94.64
2022-09-25T22:43:54.787Z,94.41
2022-09-25T22:46:23.488Z,95.12
2022-09-25T22:48:51.186Z,95.61
2022-09-25T22:51:21.205Z,95.85
2022-09-25T22:53:49.087Z,96.17
2022-09-25T22:56:21.658Z,96.54
2022-09-25T22:58:51.156Z,97.14
2022-09-25T23:01:32.699Z,96.97
2022-09-25T23:04:02.030Z,96.90
2022-09-25T23:06:31.328Z,97.60
2022-09-25T23:09:01.516Z,97.67
2022-09-25T23:11:29.244Z,97.79
2022-09-25T23:13:58.192Z,98.56
2022-09-25T23:16:25.950Z,98.17
2022-09-25T23:18:52.910Z,97.90
2022-09-25T23:21:19.660Z,98.02
2022-09-25T23:23:46.387Z,98.11
2022-09-25T23:26:13.183Z,98.65
2022-09-25T23:28:41.129Z,98.44
2022-09-25T23:31:11.130Z,98.57
2022-09-25T23:33:39.219Z,98.80
2022-09-25T23:36:08.503Z,97.84
2022-09-25T23:38:36.186Z,97.63
2022-09-25T23:41:12.868Z,97.60
2022-09-25T23:43:40.129Z,97.48
2022-09-25T23:46:07.137Z,97.70
2022-09-25T23:48:34.420Z,96.91
2022-09-25T23:51:01.180Z,97.17
2022-09-25T23:53:27.965Z,96.27
2022-09-25T23:55:54.740Z,96.07
2022-09-25T23:58:21.563Z,96.13
